createdAt,value
2023-02-18T00:03:57.801Z,1.30
2023-02-18T00:09:02.606Z,1.50
2023-02-18T00:14:07.965Z,1.00
2023-02-18T00:19:14.041Z,1.30
2023-02-18T00:24:17.049Z,1.40
2023-02-18T00:29:20.323Z,1.30
2023-02-18T00:34:21.950Z,1.20
2023-02-18T00:39:23.683Z,1.50
2023-02-18T00:44:25.313Z,1.10
2023-02-18T00:49:26.945Z,1.10
2023-02-18T00:54:28.601Z,1.10
2023-02-18T00:59:30.275Z,1.00
2023-02-18T01:04:31.975Z,0.90
2023-02-18T01:09:33.679Z,1.20
2023-02-18T01:14:35.261Z,1.20
2023-02-18T01:19:36.879Z,1.00
2023-02-18T01:24:38.603Z,1.20
2023-02-18T01:29:40.429Z,1.10
2023-02-18T01:34:42.102Z,1.10
2023-02-18T01:39:43.617Z,1.30
2023-02-18T01:44:48.595Z,1.20
2023-02-18T01:49:53.167Z,1.30
2023-02-18T01:54:57.919Z,1.00
2023-02-18T02:00:05.236Z,1.40
2023-02-18T02:05:08.280Z,1.10
2023-02-18T02:10:11.753Z,1.00
2023-02-18T02:15:33.223Z,1.20
2023-02-18T02:20:34.927Z,1.20
2023-02-18T02:25:56.985Z,1.30
2023-02-18T02:31:21.822Z,1.10
2023-02-18T02:36:46.381Z,1.30
2023-02-18T02:41:50.944Z,1.00
2023-02-18T02:46:57.523Z,1.10
2023-02-18T02:52:34.097Z,1.30
2023-02-18T02:57:47.647Z,1.20
2023-02-18T03:03:26.933Z,1.40
2023-02-18T03:08:50.423Z,1.20
2023-02-18T03:13:57.453Z,1.30
2023-02-18T03:19:14.038Z,1.00
2023-02-18T03:24:30.510Z,1.20
2023-02-18T03:29:34.387Z,1.20
2023-02-18T03:34:41.394Z,1.00
2023-02-18T03:39:46.988Z,1.00
2023-02-18T03:44:48.645Z,1.30
2023-02-18T03:49:50.231Z,0.70
2023-02-18T03:54:51.848Z,0.90
2023-02-18T03:59:53.356Z,1.40
2023-02-18T04:04:55.106Z,1.00
2023-02-18T04:09:56.755Z,0.90
2023-02-18T04:14:58.273Z,1.00
2023-02-18T04:20:00.542Z,1.20
2023-02-18T04:25:02.264Z,1.00
2023-02-18T04:30:05.008Z,0.80
2023-02-18T04:35:06.922Z,1.10
2023-02-18T04:40:09.395Z,0.80
2023-02-18T04:45:10.906Z,1.50
2023-02-18T04:50:12.538Z,1.10
2023-02-18T04:55:14.410Z,1.10
2023-02-18T05:00:18.877Z,1.10
2023-02-18T05:05:20.918Z,1.10
2023-02-18T05:10:22.611Z,1.50
2023-02-18T05:15:24.254Z,0.80
2023-02-18T05:20:25.794Z,1.20
2023-02-18T05:25:27.579Z,1.10
2023-02-18T05:30:29.314Z,1.10
2023-02-18T05:35:31.105Z,1.30
2023-02-18T05:40:32.755Z,0.90
2023-02-18T05:45:35.269Z,1.10
2023-02-18T05:50:36.943Z,1.30
2023-02-18T05:55:39.399Z,1.30
2023-02-18T06:00:41.246Z,0.80
2023-02-18T06:05:43.356Z,1.20
2023-02-18T06:10:45.170Z,1.30
2023-02-18T06:15:46.919Z,1.20
2023-02-18T06:20:49.826Z,1.00
2023-02-18T06:25:51.507Z,1.10
2023-02-18T06:30:53.247Z,1.20
2023-02-18T06:35:57.031Z,1.40
2023-02-18T06:40:58.809Z,1.30
2023-02-18T06:46:00.450Z,1.00
2023-02-18T06:51:02.341Z,1.10
2023-02-18T06:56:04.148Z,1.40
2023-02-18T07:01:05.942Z,1.60
2023-02-18T07:06:07.948Z,1.40
2023-02-18T07:11:09.831Z,1.40
2023-02-18T07:16:12.120Z,1.50
2023-02-18T07:21:14.313Z,1.10
2023-02-18T07:26:15.861Z,1.00
2023-02-18T07:31:18.530Z,1.40
2023-02-18T07:36:20.245Z,1.40
2023-02-18T07:41:23.338Z,1.20
2023-02-18T07:46:24.961Z,1.30
2023-02-18T07:51:26.515Z,1.40
2023-02-18T07:56:28.472Z,1.50
2023-02-18T08:01:30.340Z,1.50
2023-02-18T08:06:37.209Z,1.50
2023-02-18T08:11:39.955Z,1.70
2023-02-18T08:16:41.600Z,1.60
2023-02-18T08:21:43.206Z,1.10
2023-02-18T08:26:59.434Z,1.00
2023-02-18T08:32:02.585Z,1.00
2023-02-18T08:37:04.287Z,1.00
2023-02-18T08:42:06.475Z,1.30
2023-02-18T08:48:16.546Z,1.20
2023-02-18T08:52:29.837Z,1.10
2023-02-18T08:57:31.640Z,1.40
2023-02-18T09:02:33.311Z,1.10
2023-02-18T09:07:35.764Z,1.20
2023-02-18T09:12:37.816Z,1.30
2023-02-18T09:17:39.836Z,1.00
2023-02-18T09:22:41.674Z,1.00
2023-02-18T09:27:43.271Z,1.30
2023-02-18T09:32:44.816Z,1.20
2023-02-18T09:37:46.399Z,1.10
2023-02-18T09:42:49.251Z,0.80
2023-02-18T09:47:52.167Z,1.80
2023-02-18T09:52:54.347Z,1.10
2023-02-18T09:58:13.667Z,1.10
2023-02-18T10:03:18.806Z,1.40
2023-02-18T10:08:25.954Z,1.30
2023-02-18T10:13:33.439Z,1.50
2023-02-18T10:18:49.261Z,1.60
2023-02-18T10:23:53.964Z,1.70
2023-02-18T10:28:56.278Z,2.00
2023-02-18T10:34:13.265Z,2.00
2023-02-18T10:39:14.789Z,1.60
2023-02-18T10:44:45.478Z,1.20
2023-02-18T10:49:53.290Z,1.60
2023-02-18T10:55:10.655Z,1.60
2023-02-18T11:00:46.407Z,1.80
2023-02-18T11:05:52.559Z,1.60
2023-02-18T11:10:56.762Z,1.80
2023-02-18T11:16:00.263Z,1.60
2023-02-18T11:21:07.017Z,1.50
2023-02-18T11:26:15.057Z,1.50
2023-02-18T11:31:22.681Z,1.50
2023-02-18T11:36:36.209Z,1.30
2023-02-18T11:41:56.309Z,1.10
2023-02-18T11:47:00.228Z,1.80
2023-02-18T11:52:06.640Z,1.50
2023-02-18T12:02:30.167Z,1.10
2023-02-18T12:07:46.885Z,1.10
2023-02-18T12:12:55.410Z,1.80
2023-02-18T12:18:42.854Z,1.40
2023-02-18T12:24:06.899Z,1.40
2023-02-18T12:29:43.805Z,1.30
2023-02-18T12:35:32.878Z,1.50
2023-02-18T12:41:15.984Z,1.00
2023-02-18T12:46:17.562Z,1.10
2023-02-18T12:51:40.454Z,1.40
2023-02-18T12:56:55.433Z,1.20
2023-02-18T13:02:35.364Z,2.10
2023-02-18T13:07:53.120Z,1.00
2023-02-18T13:13:17.423Z,1.80
2023-02-18T13:18:28.062Z,1.50
2023-02-18T13:23:35.230Z,1.30
2023-02-18T13:29:04.835Z,1.10
2023-02-18T13:34:32.362Z,1.40
2023-02-18T13:39:34.746Z,1.40
2023-02-18T13:45:06.064Z,1.60
2023-02-18T13:50:24.496Z,1.00
2023-02-18T13:56:02.185Z,1.30
2023-02-18T14:01:12.753Z,1.40
2023-02-18T14:06:25.391Z,1.60
2023-02-18T14:11:47.629Z,1.40
2023-02-18T14:17:29.830Z,1.20
2023-02-18T14:22:31.758Z,1.60
2023-02-18T14:27:33.396Z,1.60
2023-02-18T14:32:35.137Z,1.10
2023-02-18T14:38:12.519Z,1.60
2023-02-18T14:43:25.999Z,1.70
2023-02-18T14:49:00.962Z,1.50
2023-02-18T14:54:13.492Z,2.80
2023-02-18T14:59:15.651Z,1.50
2023-02-18T15:04:17.350Z,2.40
2023-02-18T15:09:21.828Z,1.40
2023-02-18T15:14:27.575Z,1.20
2023-02-18T15:19:36.805Z,1.70
2023-02-18T15:24:39.044Z,1.50
2023-02-18T15:29:41.429Z,1.80
2023-02-18T15:34:44.118Z,1.20
2023-02-18T15:39:47.695Z,0.70
2023-02-18T15:44:53.133Z,1.50
2023-02-18T15:50:01.152Z,2.00
2023-02-18T15:55:07.833Z,2.30
2023-02-18T16:00:39.420Z,2.90
2023-02-18T16:05:42.939Z,6.60
2023-02-18T16:10:49.710Z,5.20
2023-02-18T16:15:53.097Z,2.90
2023-02-18T16:21:01.626Z,3.30
2023-02-18T16:26:21.701Z,6.20
2023-02-18T16:31:23.463Z,7.30
2023-02-18T16:36:26.055Z,6.50
2023-02-18T16:41:28.779Z,6.90
2023-02-18T16:46:31.850Z,5.80
2023-02-18T16:51:35.211Z,12.80
2023-02-18T16:56:36.881Z,8.10
2023-02-18T17:01:44.936Z,4.40
2023-02-18T17:06:46.903Z,3.50
2023-02-18T17:11:51.654Z,2.60
2023-02-18T17:16:55.030Z,3.40
2023-02-18T17:21:57.078Z,4.40
2023-02-18T17:26:58.655Z,3.30
2023-02-18T17:32:02.898Z,4.70
2023-02-18T17:37:04.481Z,5.50
2023-02-18T17:42:06.419Z,4.90
2023-02-18T17:47:07.961Z,4.50
2023-02-18T17:52:25.951Z,5.50
2023-02-18T17:57:27.542Z,3.10
2023-02-18T18:02:30.055Z,3.10
2023-02-18T18:07:31.565Z,2.40
2023-02-18T18:12:33.122Z,3.60
2023-02-18T18:17:34.733Z,3.00
2023-02-18T18:22:36.258Z,2.90
2023-02-18T18:27:37.766Z,3.00
2023-02-18T18:32:39.772Z,3.60
2023-02-18T18:37:42.265Z,3.60
2023-02-18T18:42:43.819Z,2.60
2023-02-18T18:47:46.283Z,4.40
2023-02-18T18:52:49.525Z,4.30
2023-02-18T18:57:52.458Z,5.10
2023-02-18T19:02:54.047Z,4.00
2023-02-18T19:07:56.791Z,4.80
2023-02-18T19:13:07.779Z,5.10
2023-02-18T19:18:15.282Z,4.70
2023-02-18T19:23:16.822Z,4.00
2023-02-18T19:28:20.511Z,4.40
2023-02-18T19:33:22.738Z,3.50
2023-02-18T19:38:24.333Z,3.50
2023-02-18T19:43:25.844Z,3.90
2023-02-18T19:48:27.347Z,4.10
2023-02-18T19:53:28.979Z,4.50
2023-02-18T19:58:30.493Z,4.20
2023-02-18T20:03:32.228Z,4.20
2023-02-18T20:08:37.010Z,2.90
2023-02-18T20:13:38.847Z,4.50
2023-02-18T20:18:40.425Z,3.80
2023-02-18T20:23:42.132Z,4.20
2023-02-18T20:28:44.562Z,4.00
2023-02-18T20:33:46.140Z,4.90
2023-02-18T20:38:51.774Z,4.20
2023-02-18T20:43:53.381Z,4.00
2023-02-18T20:48:54.918Z,5.10
2023-02-18T20:53:56.619Z,4.10
2023-02-18T20:58:58.550Z,3.50
2023-02-18T21:04:00.642Z,3.40
2023-02-18T21:09:02.314Z,3.10
2023-02-18T21:14:05.668Z,4.20
2023-02-18T21:19:10.832Z,3.80
2023-02-18T21:24:12.506Z,3.20
2023-02-18T21:29:16.970Z,3.80
2023-02-18T21:34:18.712Z,3.80
2023-02-18T21:39:20.254Z,2.80
2023-02-18T21:44:29.940Z,3.40
2023-02-18T21:49:38.650Z,2.80
2023-02-18T21:54:44.571Z,3.30
2023-02-18T21:59:46.372Z,4.00
2023-02-18T22:04:49.088Z,3.50
2023-02-18T22:09:53.282Z,4.40
2023-02-18T22:14:55.190Z,4.80
2023-02-18T22:19:56.728Z,4.20
2023-02-18T22:24:58.370Z,5.30
2023-02-18T22:30:00.217Z,4.20
2023-02-18T22:35:02.184Z,5.00
2023-02-18T22:40:04.473Z,5.20
2023-02-18T22:45:06.526Z,4.80
2023-02-18T22:50:09.135Z,5.40
2023-02-18T22:55:10.828Z,4.00
2023-02-18T23:00:14.914Z,3.50
2023-02-18T23:05:16.495Z,4.30
2023-02-18T23:10:18.309Z,4.90
2023-02-18T23:15:20.276Z,5.00
2023-02-18T23:20:41.730Z,4.80
2023-02-18T23:25:43.280Z,5.90
2023-02-18T23:30:44.846Z,5.30
2023-02-18T23:35:46.851Z,4.40
2023-02-18T23:40:48.817Z,4.50
2023-02-18T23:45:50.372Z,4.50
2023-02-18T23:51:01.913Z,4.00
2023-02-18T23:56:14.258Z,4.30
